Ana Sayfa
METAR-TAF:

METAR-TAF

Havaalanları :

Fayette Regional Air Center

La Grange, Teksas, Amerika Birleşik Devletleri

Enlem: 29-54-29N, Boylam: 096-57-00W, yükseklik: 99 m

Güncel hava durumu gözlemi

Rapor saat 01:15 UTC de 21 dakika önce yapıldı.
Rüzgar güneydan 5 kt
Sıcaklık 31°C
Nem 71%
Basınç 1007 hPa
Görüş mesafesi: 16.1 km
Açık gökyüzü

METAR: K3T5 200115Z AUTO 18005KT 10SM CLR 31/25 A2973 RMK AO2 T03050251

Saat: 20:36 (01:36 UTC)


TAF: eksik

4.000'den fazla havaalanı için hava durumu gözlemleri ve tahminleri (METAR ve TAF raporları).

Kullanılabilir istasyonlar harita üzerinde sarı ve kırmızı noktalarla gösterilir.

İstasyonun adını görmek için fareyi noktanın üzerinde gezdirin.

Sonrasında hava gözlem ve tahminlerini görmek için tıklayın.

Haritayı değiştirmek için: yaklaştırmak için siyah artı işaretli yeşil düğmeye ve uzaklaştırmak için de eksi işaretli düğmeye hızla tıklayın; bitişik haritalar için yeşil okları kullanın.


METAR-TAF: